Weather observations for the past three days for
Viroqua Municipal Airport
Metric (Imperial)
Date Time (cdt) Wind (kph) Vis. (km) Weather Sky Cond. Temperature (ºC) Relative Humidity Wind Chill (°C) Heat Index (°C) Pressure Precipitation (cm)
Air Dwpt 6 hour altimeter (cm) sea level (mb) 1 hr 3 hr 6 hr
Max. Min.
08 06:55 S 11 16.09 Fair CLR 6 -5.5 7 5.1 44% 4 75.72 0.0
08 06:35 S 15 16.09 Fair CLR 5.9 -5.7 43% 3 75.72 0.0
08 06:15 S 11 16.09 Fair CLR 5.3 -5.9 45% 3 75.72 0.0
08 05:55 S 7 16.09 Fair CLR 5.2 -6.2 44% 4 75.72 0.0
08 05:35 S 9 16.09 Fair CLR 5.5 -6.3 43% 4 75.72 0.0
08 05:15 S 9 16.09 Fair CLR 5.2 -6.1 44% 3 75.72 0.0
08 04:55 S 11 16.09 Fair CLR 5.2 -6 45% 3 75.72 0.0
08 04:35 S 13 16.09 Fair CLR 5.4 -6.1 44% 3 75.74 0.0
08 04:15 S 9 16.09 Fair CLR 5.5 -6.2 43% 4 75.74 0.0
08 03:55 S 15 16.09 Fair CLR 5.9 -6.6 41% 3 75.77 0.0
08 03:35 S 9 16.09 Fair CLR 5.6 -6.7 41% 4 75.77 0.0
08 03:15 S 13 16.09 Fair CLR 5.7 -6.6 41% 3 75.77 0.0
08 02:55 S 11 16.09 Fair CLR 5.6 -6.5 42% 3 75.77 0.0
08 02:35 S 11 16.09 Fair CLR 5.3 -6.6 42% 3 75.77 0.0
08 02:15 S 9 16.09 Fair CLR 5.4 -6.6 42% 4 75.77 0.0
08 01:55 S 9 16.09 Fair CLR 5.6 -6.9 41% 4 75.79 0.0
08 01:35 S 11 16.09 Fair CLR 5.5 -7 40% 3 75.82 0.0
08 01:15 S 9 16.09 Fair CLR 6 -7.3 38% 4 75.82 0.0
08 00:55 SE 11 16.09 Fair CLR 6.4 -8.4 12.5 6.3 34% 4 75.84 0.0
08 00:35 SE 11 16.09 Fair CLR 6.7 -8.4 33% 5 75.84 0.0
08 00:15 SE 9 16.09 Fair CLR 6.7 -8 35% 5 75.84 0.0
07 23:55 SE 9 16.09 Fair CLR 6.5 -8.4 34% 5 75.84 0.0
07 23:35 E 7 16.09 Fair CLR 7.2 -8.5 32% 6 75.84 0.0
07 23:15 E 6 16.09 Fair CLR 7.3 -8.5 32% 75.84 0.0
07 22:55 Calm 16.09 Fair CLR 7.6 -8.9 30% 75.84 0.0
07 22:35 NE 6 16.09 Fair CLR 7.5 -8.2 32% 75.84 0.0
07 22:15 NE 6 16.09 Fair CLR 8 -8.2 31% 75.84 0.0
07 21:55 NE 6 16.09 Fair CLR 7.8 -7.6 33% 75.84 0.0
07 21:35 Calm 16.09 Fair CLR 7.5 -6.9 36% 75.82 0.0
07 21:15 N 9 16.09 Fair CLR 7.5 -6.7 36% 6 75.82 0.0
07 20:55 N 9 16.09 Fair CLR 8.8 -7 32% 8 75.79 0.0
07 20:35 N 7 16.09 Fair CLR 9.3 -7.5 30% 9 75.77 0.0
07 20:15 N 9 16.09 Fair CLR 9.4 -6.1 33% 8 75.77 0.0
07 19:55 N 9 16.09 Fair CLR 10.5 -6.7 29% 75.77 0.0
07 19:35 N 11 16.09 Fair CLR 11.4 -6.5 28% 75.74 0.0
07 19:15 NW 13 16.09 Fair CLR 11.9 -6.6 27% 75.74 0.0
07 18:55 NW 15 16.09 Fair CLR 12.5 -5.8 14 11.1 28% 75.72 0.0
07 18:35 NW 15 16.09 Fair CLR 12.8 -6.6 25% 75.72 0.0
07 18:15 NW 19 16.09 Fair CLR 13.2 -7.6 23% 75.72 0.0
07 17:55 NW 24 16.09 Fair CLR 13.3 -7.1 24% 75.72 0.0
07 17:35 W 19 G 31 16.09 Fair CLR 13.5 -6.9 24% 75.74 0.0
07 17:15 W 15 G 41 16.09 Fair CLR 13.5 -7.1 23% 75.74 0.0
07 16:55 NW 24 G 31 16.09 Fair CLR 13.6 -6.5 24% 75.72 0.0
07 16:35 NW 15 G 33 16.09 Fair CLR 13.7 -6.1 25% 75.72 0.0
07 16:15 NW 20 G 37 16.09 Partly Cloudy SCT075 13.8 -5.2 27% 75.72 0.0
07 15:55 W 17 G 31 16.09 Fair CLR 13.6 -5.1 27% 75.74 0.0
07 15:35 NW 17 G 37 16.09 Fair CLR 13.7 -4.7 28% 75.74 0.0
07 15:15 NW 19 G 31 16.09 Partly Cloudy SCT065 12.6 -4.8 30% 75.77 0.0
07 15:00 NW 22 G 35 16.09 Partly Cloudy SCT065 12.3 -3.9 32% 75.77 0.0
07 14:35 NW 20 G 31 16.09 Mostly Cloudy BKN065 12.1 -3.9 33% 75.79 0.0
07 14:15 NW 22 G 33 16.09 Mostly Cloudy BKN065 12.3 -2.6 36% 75.79 0.0
07 14:00 NW 20 G 31 16.09 Partly Cloudy SCT065 SCT075 12.8 -2.9 34% 75.79 0.0
07 13:35 NW 17 16.09 Partly Cloudy SCT055 11.4 -2.7 38% 75.79 0.0
07 13:15 NW 11 16.09 Partly Cloudy SCT055 11.3 -2.5 38% 75.82 0.0
07 12:55 NW 15 16.09 Partly Cloudy SCT055 11.3 -2.3 11.3 2.5 39% 75.84 0.0
07 12:35 Calm 16.09 Fair CLR 10.4 -3.3 38% 75.84 0.0
07 12:15 NW 11 16.09 Partly Cloudy SCT080 10.1 -3 40% 75.87 0.0
07 11:55 NE 6 16.09 Partly Cloudy SCT080 9.5 -2.9 42% 75.9 0.0
07 11:35 SE 6 16.09 Partly Cloudy SCT085 9.9 -2.7 41% 75.9 0.0
07 11:15 N 15 16.09 Partly Cloudy SCT085 9.2 -2.4 44% 7 75.9 0.0
07 10:55 NE 9 16.09 Partly Cloudy SCT060 8.9 -3.4 42% 8 75.9 0.0
07 10:35 N 11 16.09 Partly Cloudy SCT060 8.7 -2.9 44% 7 75.92 0.0
07 10:15 Calm 16.09 Fair CLR 9.3 -3.7 40% 75.92 0.0
07 09:55 Calm 16.09 Partly Cloudy SCT060 SCT070 8.7 -4.5 39% 75.95 0.0
07 09:35 Calm 16.09 Partly Cloudy SCT070 8.5 -4.1 41% 75.97 0.0
07 09:15 Calm 16.09 Partly Cloudy SCT050 SCT060 7.8 -3.4 45% 75.97 0.0
07 08:55 Calm 16.09 Mostly Cloudy SCT042 SCT050 BKN060 6.5 -3.3 50% 75.97 0.0
07 08:35 Calm 16.09 Mostly Cloudy SCT060 BKN080 6 -2.7 54% 76 0.0
07 08:15 SE 6 16.09 Partly Cloudy SCT048 SCT060 SCT065 4.8 -2.7 59% 76 0.0
07 07:55 SW 6 16.09 Overcast BKN050 OVC060 4.1 -2.9 61% 76.02 0.0
07 07:35 Calm 16.09 Mostly Cloudy SCT060 BKN070 3.7 -2.6 64% 76 0.0
07 07:15 Calm 16.09 Mostly Cloudy BKN070 BKN080 2.9 -2.8 66% 76 0.0
07 06:55 Calm 16.09 Mostly Cloudy BKN070 BKN080 2.4 -2.5 2.5 0 70% 76 0.0
07 06:35 S 6 16.09 Overcast BKN065 OVC080 2.3 -2.5 71% 76 0.0
07 06:15 S 13 16.09 Overcast OVC065 2.1 -2.3 73% -1 76 0.0
07 05:55 S 13 16.09 Overcast OVC070 2.3 -2.4 71% -1 76 0.0
07 05:35 S 15 16.09 Mostly Cloudy BKN070 BKN120 2 -2.9 70% -2 76 0.0
07 05:15 S 11 16.09 Mostly Cloudy SCT070 SCT090 BKN110 2 -3.5 67% -1 76 0.0
07 04:55 S 15 16.09 Partly Cloudy SCT045 SCT055 SCT070 2.1 -3.6 66% -1 76.02 0.0
07 04:35 S 9 16.09 Partly Cloudy SCT047 SCT055 SCT065 1.7 -4 66% -1 76.02 0.0
07 04:15 S 9 16.09 Mostly Cloudy SCT055 SCT070 BKN080 1.5 -4 67% -1 76.05 0.0
07 03:55 S 9 16.09 Mostly Cloudy SCT060 BKN080 BKN110 1.6 -4 67% -1 76.05 0.0
07 03:35 S 7 16.09 Overcast SCT060 BKN080 OVC100 1.8 -4.1 65% -0 76.07 0.0
07 03:15 S 9 16.09 Overcast SCT048 BKN080 OVC100 1.7 -4.5 64% -1 76.07 0.0
07 02:55 S 7 16.09 Overcast SCT050 SCT060 OVC080 1.6 -4.4 65% -0 76.07 0.0
07 02:35 S 9 16.09 Overcast OVC080 1.3 -4.4 66% -1 76.07 0.0
07 02:15 S 9 16.09 Mostly Cloudy BKN080 0.8 -4.5 68% -2 76.07 0.0
07 01:55 Calm 16.09 Mostly Cloudy BKN080 1.1 -4.7 66% 76.07 0.0
07 01:35 Calm 16.09 Fair CLR 0.2 -4.3 72% 76.1 0.0
07 01:15 Calm 16.09 Fair CLR 0 -4.5 72% 76.1 0.0
07 00:55 Calm 16.09 Fair CLR 1.2 -4.5 5.6 0.8 66% 76.1 0.0
07 00:35 Calm 16.09 Fair CLR 1.2 -4.7 65% 76.1 0.0
07 00:15 Calm 16.09 Fair CLR 2.2 -4.7 61% 76.12 0.0
06 23:55 Calm 16.09 Fair CLR 2.6 -5 58% 76.12 0.0
06 23:35 Calm 16.09 Fair CLR 2.5 -4.7 59% 76.15 0.0
06 23:15 Calm 16.09 Fair CLR 2.6 -5 58% 76.17 0.0
06 22:55 Calm 16.09 Fair CLR 3.3 -5.2 54% 76.17 0.0
06 22:35 Calm 16.09 Fair CLR 3 -5.1 56% 76.17 0.0
06 22:15 Calm 16.09 Fair CLR 2.9 -5 56% 76.17 0.0
06 21:55 Calm 16.09 Fair CLR 2.6 -5 58% 76.17 0.0
06 21:35 Calm 16.09 Fair CLR 2.6 -4.9 58% 76.17 0.0
06 21:15 Calm 16.09 Fair CLR 2.4 -4.6 60% 76.17 0.0
06 20:55 Calm 16.09 Fair CLR 3 -4.8 57% 76.15 0.0
06 20:35 NW 6 16.09 Fair CLR 3.4 -4.7 56% 76.15 0.0
06 20:15 NW 7 16.09 Partly Cloudy SCT050 4 -4.6 54% 2 76.15 0.0
06 19:55 NW 13 16.09 Overcast OVC050 5.1 -4.8 49% 3 76.15 0.0
06 19:35 NW 17 16.09 Overcast OVC050 5.5 -4.8 48% 2 76.15 0.0
06 19:15 NW 19 G 28 16.09 Overcast OVC050 5.5 -5 47% 2 76.15 0.0
06 18:55 NW 20 16.09 Overcast OVC050 5.6 -5.1 6.9 5.6 46% 2 76.15 0.0
06 18:35 NW 20 16.09 Overcast OVC050 5.7 -4.7 48% 2 76.15 0.0
06 18:15 NW 15 16.09 Overcast OVC050 5.9 -4.6 47% 3 76.15 0.0
06 17:55 NW 17 G 30 16.09 Overcast OVC050 5.8 -5 46% 3 76.15 0.0
06 17:35 NW 24 16.09 Overcast OVC050 5.9 -4.8 47% 2 76.15 0.0
06 17:15 W 17 16.09 Overcast OVC050 6 -5 46% 3 76.15 0.0
06 16:55 NW 20 G 30 16.09 Overcast OVC050 6 -4.8 46% 3 76.15 0.0
06 16:35 W 19 16.09 Overcast OVC050 6.4 -4.8 45% 3 76.15 0.0
06 16:15 W 19 G 26 16.09 Overcast SCT050 OVC055 6.9 -4.8 43% 4 76.15 0.0
06 15:55 W 22 G 31 16.09 Overcast BKN050 OVC055 6.6 -4.7 45% 3 76.15 0.0
06 15:35 W 24 G 30 16.09 Overcast OVC050 6.5 -4.9 44% 3 76.15 0.0
06 15:15 NW 24 16.09 Overcast OVC050 6.3 -5.2 44% 3 76.17 0.0
06 14:55 W 19 G 28 16.09 Overcast OVC050 6.7 -4.7 44% 4 76.17 0.0
06 14:35 NW 24 G 33 16.09 Overcast OVC050 6.8 -5.1 43% 3 76.15 0.0
06 14:15 W 19 G 28 16.09 Overcast OVC050 6.2 -4.9 45% 3 76.15 0.0
06 13:55 NW 17 16.09 Overcast OVC048 6.8 -4.7 44% 4 76.15 0.0
06 13:35 W 20 G 30 16.09 Overcast OVC050 6.5 -4.9 44% 3 76.15 0.0
06 13:15 NW 17 G 30 16.09 Overcast OVC050 6.7 -5.1 43% 4 76.15 0.0
06 12:55 NW 20 16.09 Overcast OVC048 6.6 -5 6.8 1.4 44% 3 76.15 0.0
06 12:35 NW 20 G 28 16.09 Overcast OVC046 6.5 -4.5 46% 3 76.17 0.0
06 12:15 NW 17 G 28 16.09 Overcast OVC046 6.5 -4.8 45% 4 76.17 0.0
06 11:55 NW 19 G 28 16.09 Overcast OVC042 6.4 -3.8 48% 3 76.17 0.0
06 11:35 NW 28 G 33 16.09 Overcast OVC044 6.1 -4.6 47% 2 76.17 0.0
06 11:15 NW 30 16.09 Mostly Cloudy BKN044 6.6 -3.8 48% 3 76.15 0.0
06 10:55 N 17 16.09 Mostly Cloudy BKN044 6.1 -4.5 47% 3 76.15 0.0
06 10:35 NW 17 G 33 16.09 Mostly Cloudy BKN042 6.3 -4.3 47% 3 76.15 0.0
06 10:15 NW 20 G 30 16.09 Mostly Cloudy BKN040 5.5 -4.7 48% 2 76.15 0.0
06 09:55 NW 20 G 28 16.09 Partly Cloudy SCT040 5.5 -4.2 50% 2 76.15 0.0
06 09:35 NW 20 G 30 16.09 Fair CLR 5.1 -4.2 51% 2 76.15 0.0
06 09:15 N 19 16.09 Fair CLR 4.9 -4.4 51% 1 76.12 0.0
06 08:55 NW 19 16.09 Fair CLR 4.4 -4.4 53% 1 76.12 0.0
06 08:35 NW 24 16.09 Fair CLR 4.1 -4.3 55% -0 76.1 0.0
06 08:15 NW 19 16.09 Fair CLR 3.6 -3.6 60% -0 76.07 0.0
06 07:55 NW 19 16.09 Fair CLR 3.1 -3.1 64% -1 76.07 0.0
06 07:35 NW 15 16.09 Fair CLR 2.6 -2.8 68% -1 76.05 0.0
06 07:15 NW 15 16.09 Fair CLR 2 -2.6 72% -2 76.05 0.0
06 06:55 NW 13 16.09 Fair CLR 1.4 -2.9 4.5 0.3 73% -2 76.05 0.0
06 06:35 NW 13 16.09 Fair CLR 0.8 -3.1 75% -3 76.02 0.0
06 06:15 NW 11 16.09 Fair CLR 0.4 -3.5 75% -3 75.97 0.0
06 05:55 NW 9 16.09 Fair CLR 0.7 -3.2 75% -2 75.97 0.0
06 05:35 NW 13 16.09 Fair CLR 1 -3.2 74% -2 76 0.0
06 05:15 NW 15 16.09 Fair CLR 1.1 -3.3 73% -3 75.97 0.0
06 04:55 NW 9 16.09 Fair CLR 0.5 -3.5 75% -2 75.95 0.0
06 04:35 NW 7 16.09 Fair CLR 1.6 -3.5 69% -0 75.95 0.0
06 04:15 NW 6 16.09 Fair CLR 2 -3.5 67% 75.95 0.0
06 03:55 NW 9 16.09 Fair CLR 1.3 -3.3 72% -1 75.95 0.0
06 03:35 NW 11 16.09 Fair CLR 1.7 -3.1 71% -1 75.92 0.0
06 03:15 NW 11 16.09 Fair CLR 1.7 -3 71% -1 75.92 0.0
06 02:55 NW 11 16.09 Fair CLR 1.6 -2.9 72% -1 75.92 0.0
06 02:35 W 9 16.09 Fair CLR 2.7 -3 66% 0 75.9 0.0
06 02:15 W 9 16.09 Fair CLR 3.6 -3.5 60% 1 75.9 0.0
06 01:55 W 7 16.09 Fair CLR 4 -3.5 58% 2 75.87 0.0
06 01:35 W 6 16.09 Fair CLR 4.2 -3.5 58% 75.87 0.0
06 01:15 W 6 16.09 Fair CLR 4.3 -3.7 56% 75.9 0.0
06 00:55 W 6 16.09 Fair CLR 4.5 -3.9 9 4.5 55% 75.9 0.0
06 00:35 W 7 16.09 Fair CLR 4.6 -4 54% 3 75.87 0.0
06 00:15 W 6 16.09 Fair CLR 5 -4.2 52% 75.87 0.0
05 23:55 W 6 16.09 Fair CLR 5.2 -4.4 50% 75.87 0.0
05 23:35 W 6 16.09 Partly Cloudy SCT080 5.5 -4.5 49% 75.87 0.0
05 23:15 Calm 16.09 Partly Cloudy SCT080 5.7 -4.8 47% 75.87 0.0
05 22:55 Calm 16.09 Overcast OVC080 6.1 -5 45% 75.84 0.0
05 22:35 Calm 16.09 Mostly Cloudy BKN080 6 -4.8 46% 75.84 0.0
05 22:15 W 6 16.09 Partly Cloudy SCT080 6.2 -4.8 46% 75.84 0.0
05 21:55 W 7 16.09 Partly Cloudy SCT080 6 -4.6 47% 5 75.84 0.0
05 21:35 NW 7 16.09 Fair CLR 6 -4.7 47% 5 75.84 0.0
05 21:15 NW 7 16.09 Fair CLR 6.2 -4.5 47% 5 75.82 0.0
05 20:55 NW 9 16.09 Partly Cloudy SCT075 6.6 -4.6 45% 5 75.79 0.0
05 20:35 NW 9 16.09 Overcast OVC075 7.3 -4.2 44% 6 75.77 0.0
05 20:15 NW 11 16.09 Overcast OVC075 7.8 -4.8 41% 6 75.77 0.0
05 19:55 NW 15 16.09 Overcast OVC075 7.9 -5.1 40% 6 75.74 0.0
05 19:35 NW 19 16.09 Overcast OVC075 8.1 -5.6 38% 5 75.74 0.0
05 19:15 NW 19 G 26 16.09 Overcast OVC075 8.6 -5.4 37% 6 75.74 0.0
05 18:55 NW 15 16.09 Overcast OVC075 9 -6.1 11.7 9 34% 7 75.74 0.0
05 18:35 NW 19 16.09 Mostly Cloudy BKN075 9.2 -5.6 35% 7 75.74 0.0
05 18:15 NW 19 G 28 16.09 Mostly Cloudy BKN075 9.3 -5.6 35% 7 75.74 0.0
05 17:55 NW 17 G 30 16.09 Overcast OVC075 9.7 -5.9 33% 8 75.74 0.0
05 17:35 NW 28 16.09 Mostly Cloudy BKN075 10 -5.9 32% 7 75.74 0.0
05 17:15 NW 26 G 33 16.09 Mostly Cloudy BKN075 10 -6.1 32% 7 75.74 0.0
05 16:55 W 26 G 37 16.09 Mostly Cloudy BKN075 11.5 -6.2 29% 75.72 0.0
05 16:35 NW 26 G 35 16.09 Mostly Cloudy BKN075 10.2 -5.9 32% 75.72 0.0
05 16:15 W 17 G 44 16.09 Mostly Cloudy BKN075 11.5 -6.6 28% 75.72 0.0
05 15:55 W 20 16.09 Partly Cloudy SCT065 11.2 -6.5 29% 75.74 0.0
05 15:35 W 20 G 28 16.09 Mostly Cloudy BKN065 11.4 -5.7 30% 75.77 0.0
05 15:15 NW 22 G 35 16.09 Overcast OVC065 10.2 -5.7 32% 75.77 0.0
05 14:55 NW 20 16.09 Mostly Cloudy BKN065 10.5 -5.5 32% 75.77 0.0
05 14:35 W 28 G 35 16.09 Mostly Cloudy BKN065 10.6 -6.3 30% 75.77 0.0
05 14:15 W 20 G 39 16.09 Mostly Cloudy BKN065 11.2 -6.3 29% 75.77 0.0
05 13:55 W 22 G 33 16.09 Mostly Cloudy BKN065 10.1 -5.6 33% 75.77 0.0
05 13:35 NW 22 G 35 16.09 Partly Cloudy SCT065 10.1 -6.8 30% 75.77 0.0
05 13:15 NW 22 G 33 16.09 Partly Cloudy SCT065 10.1 -7.2 29% 75.74 0.0
05 12:55 W 26 16.09 Partly Cloudy SCT065 9.9 -7.4 10.5 4.1 29% 7 75.74 0.0
05 12:35 W 28 G 37 16.09 Partly Cloudy SCT065 10.3 -7.2 29% 75.74 0.0
05 12:15 NW 26 G 35 16.09 Partly Cloudy SCT065 9.8 -5.8 33% 7 75.74 0.0
05 11:55 NW 20 G 35 16.09 Partly Cloudy SCT060 9.7 -7.5 29% 7 75.74 0.0
05 11:35 NW 15 G 26 16.09 Partly Cloudy SCT060 9.1 -6.5 33% 7 75.74 0.0
05 11:15 NW 17 16.09 Partly Cloudy SCT070 8.2 -6.7 34% 6 75.77 0.0
05 10:55 W 20 G 33 16.09 Fair CLR 8.9 -6.4 34% 6 75.74 0.0
05 10:35 W 22 G 30 16.09 Fair CLR 8.8 -6 35% 6 75.72 0.0
05 10:15 NW 24 G 31 16.09 Fair CLR 8.6 -6 35% 6 75.72 0.0
05 09:55 NW 19 16.09 Fair CLR 8.1 -5.6 38% 5 75.72 0.0
05 09:35 NW 13 G 30 16.09 Fair CLR 7.7 -4.8 41% 6 75.72 0.0
05 09:15 NW 19 16.09 Fair CLR 7.5 -4.9 41% 5 75.72 0.0
05 08:55 W 11 16.09 Fair CLR 7.1 -4.1 45% 5 75.74 0.0
05 08:35 NW 13 16.09 Fair CLR 6.9 -3.8 47% 5 75.74 0.0
05 08:15 NW 13 16.09 Fair CLR 6.6 -3.1 50% 4 75.72 0.0
05 07:55 W 11 16.09 Fair CLR 6 -3 53% 4 75.72 0.0
05 07:35 W 9 16.09 Fair CLR 5.5 -2.8 55% 4 75.69 0.0
05 07:15 W 11 16.09 Fair CLR 4.8 -3 57% 3 75.67 0.0
Date Time (cdt) Wind (kph) Vis. (km) Weather Sky Cond. Air Dwpt Max. Min. Relative Humidity Wind Chill (°C) Heat Index (°C) altimeter (cm) sea level (mb) 1 hr 3 hr 6 hr
6 hour
Temperature (ºC) Pressure Precipitation (cm)